sensor_id;sensor_type;location;lat;lon;timestamp;temperature;humidity
814;DHT22;389;48.710;9.392;2023-03-31T00:01:30;9.80;99.90
814;DHT22;389;48.710;9.392;2023-03-31T00:03:58;9.80;99.90
814;DHT22;389;48.710;9.392;2023-03-31T00:06:35;9.70;99.90
814;DHT22;389;48.710;9.392;2023-03-31T00:09:04;9.80;99.90
814;DHT22;389;48.710;9.392;2023-03-31T00:11:29;9.80;99.90
814;DHT22;389;48.710;9.392;2023-03-31T00:13:55;9.70;99.90
814;DHT22;389;48.710;9.392;2023-03-31T00:16:21;9.90;99.90
814;DHT22;389;48.710;9.392;2023-03-31T00:18:47;9.80;99.90
814;DHT22;389;48.710;9.392;2023-03-31T00:21:17;9.80;99.90
814;DHT22;389;48.710;9.392;2023-03-31T00:23:53;9.70;99.90
814;DHT22;389;48.710;9.392;2023-03-31T00:26:19;9.70;99.90
814;DHT22;389;48.710;9.392;2023-03-31T00:28:44;9.70;99.90
814;DHT22;389;48.710;9.392;2023-03-31T00:31:10;9.70;99.90
814;DHT22;389;48.710;9.392;2023-03-31T00:33:36;9.70;99.90
814;DHT22;389;48.710;9.392;2023-03-31T00:36:03;9.70;99.90
814;DHT22;389;48.710;9.392;2023-03-31T00:38:31;9.70;99.90
814;DHT22;389;48.710;9.392;2023-03-31T00:40:58;9.70;99.90
814;DHT22;389;48.710;9.392;2023-03-31T00:43:30;9.70;99.90
814;DHT22;389;48.710;9.392;2023-03-31T00:48:32;9.80;99.90
814;DHT22;389;48.710;9.392;2023-03-31T00:51:03;9.70;99.90
814;DHT22;389;48.710;9.392;2023-03-31T00:53:31;9.70;99.90
814;DHT22;389;48.710;9.392;2023-03-31T00:56:03;9.80;99.90
814;DHT22;389;48.710;9.392;2023-03-31T00:58:31;9.70;99.90
814;DHT22;389;48.710;9.392;2023-03-31T01:00:59;9.70;99.90
814;DHT22;389;48.710;9.392;2023-03-31T01:03:27;9.80;99.90
814;DHT22;389;48.710;9.392;2023-03-31T01:06:05;9.80;99.90
814;DHT22;389;48.710;9.392;2023-03-31T01:08:36;9.80;99.90
814;DHT22;389;48.710;9.392;2023-03-31T01:11:05;9.80;99.90
814;DHT22;389;48.710;9.392;2023-03-31T01:13:35;9.90;99.90
814;DHT22;389;48.710;9.392;2023-03-31T01:16:02;9.90;99.90
814;DHT22;389;48.710;9.392;2023-03-31T01:18:28;9.90;99.90
814;DHT22;389;48.710;9.392;2023-03-31T01:23:54;10.00;99.90
814;DHT22;389;48.710;9.392;2023-03-31T01:29:12;10.00;99.90
814;DHT22;389;48.710;9.392;2023-03-31T01:32:10;10.00;99.90
814;DHT22;389;48.710;9.392;2023-03-31T01:35:00;10.00;99.90
814;DHT22;389;48.710;9.392;2023-03-31T01:46:00;10.00;99.90
814;DHT22;389;48.710;9.392;2023-03-31T01:48:53;10.00;99.90
814;DHT22;389;48.710;9.392;2023-03-31T01:51:38;10.10;99.90
814;DHT22;389;48.710;9.392;2023-03-31T01:57:50;10.20;99.90
814;DHT22;389;48.710;9.392;2023-03-31T02:00:10;10.20;99.90
814;DHT22;389;48.710;9.392;2023-03-31T02:02:56;10.20;99.90
814;DHT22;389;48.710;9.392;2023-03-31T02:05:29;10.30;99.90
814;DHT22;389;48.710;9.392;2023-03-31T02:08:13;10.30;99.90
814;DHT22;389;48.710;9.392;2023-03-31T02:10:41;10.30;99.90
814;DHT22;389;48.710;9.392;2023-03-31T02:13:08;10.40;99.90
814;DHT22;389;48.710;9.392;2023-03-31T02:15:38;10.40;99.90
814;DHT22;389;48.710;9.392;2023-03-31T02:18:08;10.50;99.90
814;DHT22;389;48.710;9.392;2023-03-31T02:20:39;10.50;99.90
814;DHT22;389;48.710;9.392;2023-03-31T02:23:13;10.60;99.90
814;DHT22;389;48.710;9.392;2023-03-31T02:25:50;10.60;99.90
814;DHT22;389;48.710;9.392;2023-03-31T02:28:25;10.70;99.90
814;DHT22;389;48.710;9.392;2023-03-31T02:33:30;10.80;99.90
814;DHT22;389;48.710;9.392;2023-03-31T02:35:57;10.80;99.90
814;DHT22;389;48.710;9.392;2023-03-31T02:38:23;10.90;99.90
814;DHT22;389;48.710;9.392;2023-03-31T02:40:49;10.90;99.30
814;DHT22;389;48.710;9.392;2023-03-31T02:43:14;11.00;98.90
814;DHT22;389;48.710;9.392;2023-03-31T02:45:46;11.20;98.70
814;DHT22;389;48.710;9.392;2023-03-31T02:48:14;11.30;98.50
814;DHT22;389;48.710;9.392;2023-03-31T03:04:47;11.70;97.60
814;DHT22;389;48.710;9.392;2023-03-31T03:15:48;11.80;97.50
814;DHT22;389;48.710;9.392;2023-03-31T03:18:19;11.80;97.50
814;DHT22;389;48.710;9.392;2023-03-31T03:20:45;11.80;97.60
814;DHT22;389;48.710;9.392;2023-03-31T03:23:14;11.70;97.60
814;DHT22;389;48.710;9.392;2023-03-31T03:25:40;11.70;97.70
814;DHT22;389;48.710;9.392;2023-03-31T03:28:06;11.70;97.70
814;DHT22;389;48.710;9.392;2023-03-31T03:30:32;11.60;97.80
814;DHT22;389;48.710;9.392;2023-03-31T03:32:58;11.60;97.90
814;DHT22;389;48.710;9.392;2023-03-31T03:35:23;11.60;98.00
814;DHT22;389;48.710;9.392;2023-03-31T03:37:49;11.50;98.10
814;DHT22;389;48.710;9.392;2023-03-31T03:40:15;11.40;98.20
814;DHT22;389;48.710;9.392;2023-03-31T03:42:41;11.40;98.20
814;DHT22;389;48.710;9.392;2023-03-31T03:45:07;11.40;98.20
814;DHT22;389;48.710;9.392;2023-03-31T03:47:33;11.40;98.30
814;DHT22;389;48.710;9.392;2023-03-31T03:49:58;11.30;98.30
814;DHT22;389;48.710;9.392;2023-03-31T03:52:24;11.30;98.40
814;DHT22;389;48.710;9.392;2023-03-31T03:54:50;11.30;98.40
814;DHT22;389;48.710;9.392;2023-03-31T03:57:15;11.20;98.40
814;DHT22;389;48.710;9.392;2023-03-31T03:59:41;11.30;98.60
814;DHT22;389;48.710;9.392;2023-03-31T04:02:06;11.20;98.60
814;DHT22;389;48.710;9.392;2023-03-31T04:04:32;11.20;98.70
814;DHT22;389;48.710;9.392;2023-03-31T04:06:57;11.10;98.70
814;DHT22;389;48.710;9.392;2023-03-31T04:09:23;11.10;98.80
814;DHT22;389;48.710;9.392;2023-03-31T04:11:49;11.10;98.90
814;DHT22;389;48.710;9.392;2023-03-31T04:14:14;11.10;99.00
814;DHT22;389;48.710;9.392;2023-03-31T04:16:40;11.00;99.00
814;DHT22;389;48.710;9.392;2023-03-31T04:19:06;11.00;99.10
814;DHT22;389;48.710;9.392;2023-03-31T04:21:33;11.00;99.20
814;DHT22;389;48.710;9.392;2023-03-31T04:24:01;10.90;99.20
814;DHT22;389;48.710;9.392;2023-03-31T04:26:30;10.90;99.10
814;DHT22;389;48.710;9.392;2023-03-31T04:29:04;10.80;99.30
814;DHT22;389;48.710;9.392;2023-03-31T04:31:30;10.70;99.30
814;DHT22;389;48.710;9.392;2023-03-31T04:33:55;10.70;99.50
814;DHT22;389;48.710;9.392;2023-03-31T04:36:27;10.60;99.40
814;DHT22;389;48.710;9.392;2023-03-31T04:38:53;10.50;99.40
814;DHT22;389;48.710;9.392;2023-03-31T04:41:33;10.50;99.50
814;DHT22;389;48.710;9.392;2023-03-31T04:43:58;10.50;99.80
814;DHT22;389;48.710;9.392;2023-03-31T04:46:24;10.40;99.80
814;DHT22;389;48.710;9.392;2023-03-31T04:48:50;10.40;99.80
814;DHT22;389;48.710;9.392;2023-03-31T04:51:16;10.40;99.80
814;DHT22;389;48.710;9.392;2023-03-31T04:53:41;10.40;99.90
814;DHT22;389;48.710;9.392;2023-03-31T04:56:07;10.50;99.90
814;DHT22;389;48.710;9.392;2023-03-31T04:58:32;10.40;99.90
814;DHT22;389;48.710;9.392;2023-03-31T05:00:58;10.50;99.90
814;DHT22;389;48.710;9.392;2023-03-31T05:03:24;10.50;99.90
814;DHT22;389;48.710;9.392;2023-03-31T05:05:50;10.50;99.90
814;DHT22;389;48.710;9.392;2023-03-31T05:08:24;10.60;99.90
814;DHT22;389;48.710;9.392;2023-03-31T05:10:51;10.60;99.90
814;DHT22;389;48.710;9.392;2023-03-31T05:13:17;10.60;99.90
814;DHT22;389;48.710;9.392;2023-03-31T05:15:42;10.60;99.90
814;DHT22;389;48.710;9.392;2023-03-31T05:18:10;10.60;99.90
814;DHT22;389;48.710;9.392;2023-03-31T05:20:36;10.70;99.90
814;DHT22;389;48.710;9.392;2023-03-31T05:23:01;10.70;99.90
814;DHT22;389;48.710;9.392;2023-03-31T05:25:28;10.70;99.90
814;DHT22;389;48.710;9.392;2023-03-31T05:27:57;10.80;99.90
814;DHT22;389;48.710;9.392;2023-03-31T05:30:24;10.90;99.90
814;DHT22;389;48.710;9.392;2023-03-31T05:32:50;10.80;99.90
814;DHT22;389;48.710;9.392;2023-03-31T05:35:16;10.90;99.90
814;DHT22;389;48.710;9.392;2023-03-31T05:37:42;10.90;99.90
814;DHT22;389;48.710;9.392;2023-03-31T05:40:08;10.90;99.90
814;DHT22;389;48.710;9.392;2023-03-31T05:42:34;10.90;99.90
814;DHT22;389;48.710;9.392;2023-03-31T05:45:00;10.90;99.90
814;DHT22;389;48.710;9.392;2023-03-31T05:47:26;11.00;99.90
814;DHT22;389;48.710;9.392;2023-03-31T05:49:51;11.00;99.90
814;DHT22;389;48.710;9.392;2023-03-31T05:52:17;11.00;99.90
814;DHT22;389;48.710;9.392;2023-03-31T05:54:43;11.10;99.90
814;DHT22;389;48.710;9.392;2023-03-31T05:57:09;11.00;99.90
814;DHT22;389;48.710;9.392;2023-03-31T05:59:35;11.00;99.90
814;DHT22;389;48.710;9.392;2023-03-31T06:02:04;11.00;99.90
814;DHT22;389;48.710;9.392;2023-03-31T06:04:29;11.00;99.90
814;DHT22;389;48.710;9.392;2023-03-31T06:06:57;11.00;99.90
814;DHT22;389;48.710;9.392;2023-03-31T06:09:23;10.90;99.90
814;DHT22;389;48.710;9.392;2023-03-31T06:11:49;10.90;99.90
814;DHT22;389;48.710;9.392;2023-03-31T06:14:15;10.90;99.90
814;DHT22;389;48.710;9.392;2023-03-31T06:16:40;10.90;99.90
814;DHT22;389;48.710;9.392;2023-03-31T06:19:06;11.00;99.90
814;DHT22;389;48.710;9.392;2023-03-31T06:21:32;11.00;99.90
814;DHT22;389;48.710;9.392;2023-03-31T06:23:58;11.00;99.90
814;DHT22;389;48.710;9.392;2023-03-31T06:26:25;11.00;99.90
814;DHT22;389;48.710;9.392;2023-03-31T06:28:51;11.10;99.90
814;DHT22;389;48.710;9.392;2023-03-31T06:31:18;11.10;99.90
814;DHT22;389;48.710;9.392;2023-03-31T06:33:45;11.10;99.90
814;DHT22;389;48.710;9.392;2023-03-31T06:36:13;11.20;99.90
814;DHT22;389;48.710;9.392;2023-03-31T06:38:39;11.20;99.90
814;DHT22;389;48.710;9.392;2023-03-31T06:41:05;11.30;99.90
814;DHT22;389;48.710;9.392;2023-03-31T06:43:32;11.30;99.90
814;DHT22;389;48.710;9.392;2023-03-31T06:45:57;11.30;99.90
814;DHT22;389;48.710;9.392;2023-03-31T06:48:32;11.30;99.90
814;DHT22;389;48.710;9.392;2023-03-31T06:51:02;11.30;99.90
814;DHT22;389;48.710;9.392;2023-03-31T06:53:29;11.30;99.90
814;DHT22;389;48.710;9.392;2023-03-31T06:55:54;11.30;99.90
814;DHT22;389;48.710;9.392;2023-03-31T06:58:20;11.30;99.90
814;DHT22;389;48.710;9.392;2023-03-31T07:00:46;11.30;99.90
814;DHT22;389;48.710;9.392;2023-03-31T07:03:12;11.30;99.90
814;DHT22;389;48.710;9.392;2023-03-31T07:05:38;11.20;99.90
814;DHT22;389;48.710;9.392;2023-03-31T07:08:04;11.20;99.90
814;DHT22;389;48.710;9.392;2023-03-31T07:10:31;11.20;99.90
814;DHT22;389;48.710;9.392;2023-03-31T07:12:58;11.30;99.90
814;DHT22;389;48.710;9.392;2023-03-31T07:15:24;11.30;99.90
814;DHT22;389;48.710;9.392;2023-03-31T07:17:50;11.30;99.90
814;DHT22;389;48.710;9.392;2023-03-31T07:20:18;11.20;99.90
814;DHT22;389;48.710;9.392;2023-03-31T07:22:46;11.30;99.90
814;DHT22;389;48.710;9.392;2023-03-31T07:25:15;11.30;99.90
814;DHT22;389;48.710;9.392;2023-03-31T07:27:41;11.30;99.90
814;DHT22;389;48.710;9.392;2023-03-31T07:30:14;11.20;99.90
814;DHT22;389;48.710;9.392;2023-03-31T07:32:40;11.40;99.90
814;DHT22;389;48.710;9.392;2023-03-31T07:35:07;11.40;99.90
814;DHT22;389;48.710;9.392;2023-03-31T07:37:40;11.50;99.90
814;DHT22;389;48.710;9.392;2023-03-31T07:40:07;11.60;99.90
814;DHT22;389;48.710;9.392;2023-03-31T07:42:34;11.70;99.90
814;DHT22;389;48.710;9.392;2023-03-31T07:45:00;11.80;99.90
814;DHT22;389;48.710;9.392;2023-03-31T07:47:26;11.90;99.90
814;DHT22;389;48.710;9.392;2023-03-31T07:49:52;11.90;99.90
814;DHT22;389;48.710;9.392;2023-03-31T07:52:18;12.00;99.60
814;DHT22;389;48.710;9.392;2023-03-31T07:54:46;12.00;98.90
814;DHT22;389;48.710;9.392;2023-03-31T07:57:14;12.10;98.80
814;DHT22;389;48.710;9.392;2023-03-31T07:59:42;12.30;98.80
814;DHT22;389;48.710;9.392;2023-03-31T08:02:13;12.40;98.80
814;DHT22;389;48.710;9.392;2023-03-31T08:04:39;12.60;98.40
814;DHT22;389;48.710;9.392;2023-03-31T08:07:07;12.70;98.30
814;DHT22;389;48.710;9.392;2023-03-31T08:09:33;12.80;98.30
814;DHT22;389;48.710;9.392;2023-03-31T08:11:59;13.00;98.70
814;DHT22;389;48.710;9.392;2023-03-31T08:14:25;13.20;99.20
814;DHT22;389;48.710;9.392;2023-03-31T08:16:50;13.30;99.20
814;DHT22;389;48.710;9.392;2023-03-31T08:19:17;13.50;99.10
814;DHT22;389;48.710;9.392;2023-03-31T08:21:43;13.50;98.80
814;DHT22;389;48.710;9.392;2023-03-31T08:24:08;13.60;98.60
814;DHT22;389;48.710;9.392;2023-03-31T08:26:34;13.70;98.50
814;DHT22;389;48.710;9.392;2023-03-31T08:29:00;13.60;98.50
814;DHT22;389;48.710;9.392;2023-03-31T08:31:27;13.60;98.80
814;DHT22;389;48.710;9.392;2023-03-31T08:33:53;13.60;98.80
814;DHT22;389;48.710;9.392;2023-03-31T08:36:19;13.60;98.90
814;DHT22;389;48.710;9.392;2023-03-31T08:38:46;13.70;98.90
814;DHT22;389;48.710;9.392;2023-03-31T08:41:57;13.70;98.90
814;DHT22;389;48.710;9.392;2023-03-31T08:46:52;13.80;98.70
814;DHT22;389;48.710;9.392;2023-03-31T08:49:20;13.90;98.60
814;DHT22;389;48.710;9.392;2023-03-31T08:52:06;13.90;98.40
814;DHT22;389;48.710;9.392;2023-03-31T08:54:41;14.00;98.30
814;DHT22;389;48.710;9.392;2023-03-31T08:57:50;14.10;97.60
814;DHT22;389;48.710;9.392;2023-03-31T09:00:18;14.10;97.80
814;DHT22;389;48.710;9.392;2023-03-31T09:03:05;14.20;97.40
814;DHT22;389;48.710;9.392;2023-03-31T09:06:07;14.40;97.10
814;DHT22;389;48.710;9.392;2023-03-31T09:08:41;14.50;97.40
814;DHT22;389;48.710;9.392;2023-03-31T09:16:25;14.80;96.10
814;DHT22;389;48.710;9.392;2023-03-31T09:18:56;14.90;95.90
814;DHT22;389;48.710;9.392;2023-03-31T09:21:44;15.00;95.60
814;DHT22;389;48.710;9.392;2023-03-31T09:29:13;15.30;93.90
814;DHT22;389;48.710;9.392;2023-03-31T09:31:43;15.40;93.80
814;DHT22;389;48.710;9.392;2023-03-31T09:34:35;15.50;93.50
814;DHT22;389;48.710;9.392;2023-03-31T09:37:01;15.70;92.90
814;DHT22;389;48.710;9.392;2023-03-31T09:39:27;15.90;91.10
814;DHT22;389;48.710;9.392;2023-03-31T09:41:53;16.00;90.30
814;DHT22;389;48.710;9.392;2023-03-31T09:44:42;16.30;90.10
814;DHT22;389;48.710;9.392;2023-03-31T09:49:58;16.80;86.70
814;DHT22;389;48.710;9.392;2023-03-31T09:54:52;17.00;84.80
814;DHT22;389;48.710;9.392;2023-03-31T09:59:52;17.10;84.30
814;DHT22;389;48.710;9.392;2023-03-31T10:02:35;17.20;85.50
814;DHT22;389;48.710;9.392;2023-03-31T10:05:03;17.30;84.60
814;DHT22;389;48.710;9.392;2023-03-31T10:07:30;17.30;84.40
814;DHT22;389;48.710;9.392;2023-03-31T10:09:56;17.30;83.30
814;DHT22;389;48.710;9.392;2023-03-31T10:12:25;17.30;82.20
814;DHT22;389;48.710;9.392;2023-03-31T10:15:13;17.10;82.40
814;DHT22;389;48.710;9.392;2023-03-31T10:17:43;17.10;81.30
814;DHT22;389;48.710;9.392;2023-03-31T10:20:41;17.00;79.20
814;DHT22;389;48.710;9.392;2023-03-31T10:23:16;16.90;79.70
814;DHT22;389;48.710;9.392;2023-03-31T10:25:43;16.90;80.20
814;DHT22;389;48.710;9.392;2023-03-31T10:28:12;17.00;80.30
814;DHT22;389;48.710;9.392;2023-03-31T10:30:46;17.20;80.40
814;DHT22;389;48.710;9.392;2023-03-31T10:33:16;17.60;79.80
814;DHT22;389;48.710;9.392;2023-03-31T10:35:42;17.70;77.50
814;DHT22;389;48.710;9.392;2023-03-31T10:38:14;18.00;76.80
814;DHT22;389;48.710;9.392;2023-03-31T10:40:53;18.20;75.60
814;DHT22;389;48.710;9.392;2023-03-31T10:43:24;18.50;76.10
814;DHT22;389;48.710;9.392;2023-03-31T10:45:56;18.80;75.80
814;DHT22;389;48.710;9.392;2023-03-31T10:50:54;19.00;70.00
814;DHT22;389;48.710;9.392;2023-03-31T10:53:23;19.00;68.30
814;DHT22;389;48.710;9.392;2023-03-31T10:59:18;19.30;69.80
814;DHT22;389;48.710;9.392;2023-03-31T11:08:19;19.50;67.80
814;DHT22;389;48.710;9.392;2023-03-31T11:11:03;19.60;67.90
814;DHT22;389;48.710;9.392;2023-03-31T11:13:49;19.70;65.60
814;DHT22;389;48.710;9.392;2023-03-31T11:33:32;18.10;76.60
814;DHT22;389;48.710;9.392;2023-03-31T11:39:02;16.10;83.80
814;DHT22;389;48.710;9.392;2023-03-31T11:41:40;14.80;87.20
814;DHT22;389;48.710;9.392;2023-03-31T11:44:13;13.90;90.50
814;DHT22;389;48.710;9.392;2023-03-31T11:46:52;13.00;91.60
814;DHT22;389;48.710;9.392;2023-03-31T11:49:23;12.50;93.00
814;DHT22;389;48.710;9.392;2023-03-31T11:54:33;11.70;94.60
814;DHT22;389;48.710;9.392;2023-03-31T11:57:05;11.50;95.30
814;DHT22;389;48.710;9.392;2023-03-31T11:59:34;11.30;95.80
814;DHT22;389;48.710;9.392;2023-03-31T12:02:13;11.10;96.30
814;DHT22;389;48.710;9.392;2023-03-31T12:04:44;11.10;96.40
814;DHT22;389;48.710;9.392;2023-03-31T12:07:37;11.20;96.80
814;DHT22;389;48.710;9.392;2023-03-31T12:10:18;11.30;96.70
814;DHT22;389;48.710;9.392;2023-03-31T12:15:41;12.00;96.40
814;DHT22;389;48.710;9.392;2023-03-31T12:20:40;12.60;94.90
814;DHT22;389;48.710;9.392;2023-03-31T12:23:12;12.80;94.70
814;DHT22;389;48.710;9.392;2023-03-31T12:28:14;13.20;93.90
814;DHT22;389;48.710;9.392;2023-03-31T12:30:42;13.40;93.90
814;DHT22;389;48.710;9.392;2023-03-31T12:33:31;13.50;93.60
814;DHT22;389;48.710;9.392;2023-03-31T12:42:08;14.10;91.90
814;DHT22;389;48.710;9.392;2023-03-31T12:44:55;14.30;92.00
814;DHT22;389;48.710;9.392;2023-03-31T13:06:00;15.20;87.90
814;DHT22;389;48.710;9.392;2023-03-31T13:08:49;15.30;87.90
814;DHT22;389;48.710;9.392;2023-03-31T13:11:15;15.40;87.30
814;DHT22;389;48.710;9.392;2023-03-31T13:14:01;15.50;86.70
814;DHT22;389;48.710;9.392;2023-03-31T13:16:32;15.70;86.60
814;DHT22;389;48.710;9.392;2023-03-31T13:18:58;15.80;82.80
814;DHT22;389;48.710;9.392;2023-03-31T13:21:25;15.80;82.70
814;DHT22;389;48.710;9.392;2023-03-31T13:23:52;15.90;83.10
814;DHT22;389;48.710;9.392;2023-03-31T13:26:39;16.00;84.60
814;DHT22;389;48.710;9.392;2023-03-31T13:34:26;16.20;81.80
814;DHT22;389;48.710;9.392;2023-03-31T13:37:03;16.00;81.70
814;DHT22;389;48.710;9.392;2023-03-31T13:39:55;15.90;81.70
814;DHT22;389;48.710;9.392;2023-03-31T13:51:25;15.50;89.50
814;DHT22;389;48.710;9.392;2023-03-31T14:00:25;14.30;93.50
814;DHT22;389;48.710;9.392;2023-03-31T14:05:44;13.10;92.90
814;DHT22;389;48.710;9.392;2023-03-31T14:08:31;12.60;93.90
814;DHT22;389;48.710;9.392;2023-03-31T14:11:28;12.40;94.40
814;DHT22;389;48.710;9.392;2023-03-31T14:14:23;12.10;94.70
814;DHT22;389;48.710;9.392;2023-03-31T14:16:54;12.00;94.90
814;DHT22;389;48.710;9.392;2023-03-31T14:19:43;11.80;95.10
814;DHT22;389;48.710;9.392;2023-03-31T14:22:45;11.80;94.90
814;DHT22;389;48.710;9.392;2023-03-31T14:28:24;12.00;96.30
814;DHT22;389;48.710;9.392;2023-03-31T14:37:02;13.00;95.40
814;DHT22;389;48.710;9.392;2023-03-31T14:39:40;13.20;94.90
814;DHT22;389;48.710;9.392;2023-03-31T14:42:13;13.30;94.10
814;DHT22;389;48.710;9.392;2023-03-31T14:44:40;13.40;93.70
814;DHT22;389;48.710;9.392;2023-03-31T14:47:13;13.40;93.30
814;DHT22;389;48.710;9.392;2023-03-31T14:49:39;13.50;93.40
814;DHT22;389;48.710;9.392;2023-03-31T14:54:38;13.70;93.70
814;DHT22;389;48.710;9.392;2023-03-31T14:57:05;13.90;93.80
814;DHT22;389;48.710;9.392;2023-03-31T14:59:33;14.10;93.70
814;DHT22;389;48.710;9.392;2023-03-31T15:02:02;14.30;93.60
814;DHT22;389;48.710;9.392;2023-03-31T15:04:29;14.40;93.00
814;DHT22;389;48.710;9.392;2023-03-31T15:06:58;14.50;92.50
814;DHT22;389;48.710;9.392;2023-03-31T15:09:32;14.50;92.70
814;DHT22;389;48.710;9.392;2023-03-31T15:12:03;14.60;92.60
814;DHT22;389;48.710;9.392;2023-03-31T15:14:34;14.60;92.60
814;DHT22;389;48.710;9.392;2023-03-31T15:17:00;14.70;92.80
814;DHT22;389;48.710;9.392;2023-03-31T15:19:28;14.80;92.10
814;DHT22;389;48.710;9.392;2023-03-31T15:22:16;14.80;92.60
814;DHT22;389;48.710;9.392;2023-03-31T15:25:03;14.90;92.10
814;DHT22;389;48.710;9.392;2023-03-31T15:27:38;14.90;91.60
814;DHT22;389;48.710;9.392;2023-03-31T15:30:18;15.10;91.00
814;DHT22;389;48.710;9.392;2023-03-31T15:32:45;15.00;90.90
814;DHT22;389;48.710;9.392;2023-03-31T15:35:30;15.10;90.90
814;DHT22;389;48.710;9.392;2023-03-31T15:37:57;15.20;90.90
814;DHT22;389;48.710;9.392;2023-03-31T15:40:29;15.30;90.30
814;DHT22;389;48.710;9.392;2023-03-31T15:43:07;15.30;89.60
814;DHT22;389;48.710;9.392;2023-03-31T15:45:49;15.30;89.40
814;DHT22;389;48.710;9.392;2023-03-31T15:48:47;15.20;89.10
814;DHT22;389;48.710;9.392;2023-03-31T15:51:28;15.10;89.10
814;DHT22;389;48.710;9.392;2023-03-31T15:53:59;15.00;88.80
814;DHT22;389;48.710;9.392;2023-03-31T15:58:59;14.90;89.30
814;DHT22;389;48.710;9.392;2023-03-31T16:01:43;14.80;89.20
814;DHT22;389;48.710;9.392;2023-03-31T16:04:12;14.70;89.70
814;DHT22;389;48.710;9.392;2023-03-31T16:06:49;14.60;89.80
814;DHT22;389;48.710;9.392;2023-03-31T16:09:20;14.50;90.10
814;DHT22;389;48.710;9.392;2023-03-31T16:11:54;14.40;90.20
814;DHT22;389;48.710;9.392;2023-03-31T16:14:33;14.40;90.30
814;DHT22;389;48.710;9.392;2023-03-31T16:17:27;14.30;90.40
814;DHT22;389;48.710;9.392;2023-03-31T16:20:08;14.20;90.60
814;DHT22;389;48.710;9.392;2023-03-31T16:22:40;14.10;90.80
814;DHT22;389;48.710;9.392;2023-03-31T16:25:09;14.00;91.00
814;DHT22;389;48.710;9.392;2023-03-31T16:27:44;13.90;91.00
814;DHT22;389;48.710;9.392;2023-03-31T16:30:31;13.80;91.20
814;DHT22;389;48.710;9.392;2023-03-31T16:33:07;13.70;91.40
814;DHT22;389;48.710;9.392;2023-03-31T16:35:35;13.70;91.20
814;DHT22;389;48.710;9.392;2023-03-31T16:38:02;13.60;91.40
814;DHT22;389;48.710;9.392;2023-03-31T16:40:29;13.60;91.60
814;DHT22;389;48.710;9.392;2023-03-31T16:43:16;13.60;91.60
814;DHT22;389;48.710;9.392;2023-03-31T16:45:52;13.50;91.40
814;DHT22;389;48.710;9.392;2023-03-31T16:48:19;13.40;91.30
814;DHT22;389;48.710;9.392;2023-03-31T16:50:46;13.40;91.20
814;DHT22;389;48.710;9.392;2023-03-31T16:53:17;13.20;90.90
814;DHT22;389;48.710;9.392;2023-03-31T16:55:43;13.20;91.20
814;DHT22;389;48.710;9.392;2023-03-31T16:58:09;13.20;91.40
814;DHT22;389;48.710;9.392;2023-03-31T17:00:35;13.10;92.00
814;DHT22;389;48.710;9.392;2023-03-31T17:03:05;13.10;92.60
814;DHT22;389;48.710;9.392;2023-03-31T17:05:36;13.00;92.90
814;DHT22;389;48.710;9.392;2023-03-31T17:08:02;12.90;93.20
814;DHT22;389;48.710;9.392;2023-03-31T17:10:27;12.80;93.30
814;DHT22;389;48.710;9.392;2023-03-31T17:12:56;12.70;93.00
814;DHT22;389;48.710;9.392;2023-03-31T17:15:22;12.60;92.90
814;DHT22;389;48.710;9.392;2023-03-31T17:17:48;12.50;92.70
814;DHT22;389;48.710;9.392;2023-03-31T17:20:14;12.50;92.90
814;DHT22;389;48.710;9.392;2023-03-31T17:22:40;12.30;92.90
814;DHT22;389;48.710;9.392;2023-03-31T17:25:06;12.30;93.10
814;DHT22;389;48.710;9.392;2023-03-31T17:27:32;12.10;93.10
814;DHT22;389;48.710;9.392;2023-03-31T17:29:58;12.20;93.20
814;DHT22;389;48.710;9.392;2023-03-31T17:32:24;12.00;93.00
814;DHT22;389;48.710;9.392;2023-03-31T17:34:50;12.00;93.00
814;DHT22;389;48.710;9.392;2023-03-31T17:37:17;11.90;93.10
814;DHT22;389;48.710;9.392;2023-03-31T17:39:43;11.90;93.30
814;DHT22;389;48.710;9.392;2023-03-31T17:42:10;11.80;93.30
814;DHT22;389;48.710;9.392;2023-03-31T17:44:37;11.80;93.40
814;DHT22;389;48.710;9.392;2023-03-31T17:47:03;11.70;93.40
814;DHT22;389;48.710;9.392;2023-03-31T17:49:29;11.70;93.60
814;DHT22;389;48.710;9.392;2023-03-31T17:51:56;11.70;93.70
814;DHT22;389;48.710;9.392;2023-03-31T17:54:22;11.70;93.70
814;DHT22;389;48.710;9.392;2023-03-31T17:56:47;11.60;93.90
814;DHT22;389;48.710;9.392;2023-03-31T17:59:17;11.60;94.00
814;DHT22;389;48.710;9.392;2023-03-31T18:01:43;11.60;94.10
814;DHT22;389;48.710;9.392;2023-03-31T18:04:09;11.60;94.20
814;DHT22;389;48.710;9.392;2023-03-31T18:06:36;11.60;94.30
814;DHT22;389;48.710;9.392;2023-03-31T18:09:03;11.70;94.40
814;DHT22;389;48.710;9.392;2023-03-31T18:11:30;11.50;94.40
814;DHT22;389;48.710;9.392;2023-03-31T18:13:56;11.50;94.50
814;DHT22;389;48.710;9.392;2023-03-31T18:16:21;11.60;94.70
814;DHT22;389;48.710;9.392;2023-03-31T18:18:47;11.50;94.70
814;DHT22;389;48.710;9.392;2023-03-31T18:21:13;11.40;94.80
814;DHT22;389;48.710;9.392;2023-03-31T18:23:42;11.50;95.00
814;DHT22;389;48.710;9.392;2023-03-31T18:26:10;11.40;95.00
814;DHT22;389;48.710;9.392;2023-03-31T18:28:36;11.50;95.20
814;DHT22;389;48.710;9.392;2023-03-31T18:31:06;11.50;95.10
814;DHT22;389;48.710;9.392;2023-03-31T18:33:32;11.50;95.20
814;DHT22;389;48.710;9.392;2023-03-31T18:35:59;11.50;95.20
814;DHT22;389;48.710;9.392;2023-03-31T18:38:25;11.50;95.30
814;DHT22;389;48.710;9.392;2023-03-31T18:40:51;11.50;95.30
814;DHT22;389;48.710;9.392;2023-03-31T18:43:18;11.50;95.40
814;DHT22;389;48.710;9.392;2023-03-31T18:45:47;11.40;95.40
814;DHT22;389;48.710;9.392;2023-03-31T18:48:14;11.40;95.60
814;DHT22;389;48.710;9.392;2023-03-31T18:50:42;11.30;95.60
814;DHT22;389;48.710;9.392;2023-03-31T18:53:08;11.30;95.70
814;DHT22;389;48.710;9.392;2023-03-31T18:55:34;11.30;95.80
814;DHT22;389;48.710;9.392;2023-03-31T18:58:00;11.20;95.80
814;DHT22;389;48.710;9.392;2023-03-31T19:00:25;11.30;95.90
814;DHT22;389;48.710;9.392;2023-03-31T19:02:51;11.20;96.00
814;DHT22;389;48.710;9.392;2023-03-31T19:05:18;11.20;95.90
814;DHT22;389;48.710;9.392;2023-03-31T19:07:43;11.10;95.90
814;DHT22;389;48.710;9.392;2023-03-31T19:10:09;11.10;96.10
814;DHT22;389;48.710;9.392;2023-03-31T19:12:35;11.00;96.20
814;DHT22;389;48.710;9.392;2023-03-31T19:15:00;11.00;96.50
814;DHT22;389;48.710;9.392;2023-03-31T19:17:26;10.90;96.50
814;DHT22;389;48.710;9.392;2023-03-31T19:19:52;11.00;96.60
814;DHT22;389;48.710;9.392;2023-03-31T19:22:17;11.00;96.60
814;DHT22;389;48.710;9.392;2023-03-31T19:24:43;10.90;96.60
814;DHT22;389;48.710;9.392;2023-03-31T19:27:10;10.90;96.80
814;DHT22;389;48.710;9.392;2023-03-31T19:29:36;10.90;96.80
814;DHT22;389;48.710;9.392;2023-03-31T19:32:02;10.90;96.80
814;DHT22;389;48.710;9.392;2023-03-31T19:34:28;10.90;96.80
814;DHT22;389;48.710;9.392;2023-03-31T19:36:53;10.90;96.70
814;DHT22;389;48.710;9.392;2023-03-31T19:39:19;10.90;96.60
814;DHT22;389;48.710;9.392;2023-03-31T19:41:45;10.90;96.60
814;DHT22;389;48.710;9.392;2023-03-31T19:44:11;10.90;96.50
814;DHT22;389;48.710;9.392;2023-03-31T19:46:37;10.90;96.50
814;DHT22;389;48.710;9.392;2023-03-31T19:49:03;10.90;96.40